createdAt,value
2023-02-12T00:00:22.475Z,958.31
2023-02-12T00:00:53.379Z,958.31
2023-02-12T00:01:24.245Z,958.11
2023-02-12T00:01:56.670Z,958.11
2023-02-12T00:02:26.729Z,958.31
2023-02-12T00:02:57.389Z,958.31
2023-02-12T00:03:28.704Z,958.41
2023-02-12T00:03:59.710Z,958.41
2023-02-12T00:04:30.524Z,958.41
2023-02-12T00:05:01.499Z,958.41
2023-02-12T00:05:32.360Z,958.31
2023-02-12T00:06:03.416Z,958.31
2023-02-12T00:06:34.489Z,958.21
2023-02-12T00:07:06.414Z,958.21
2023-02-12T00:07:36.514Z,958.31
2023-02-12T00:08:07.534Z,958.31
2023-02-12T00:08:38.556Z,958.01
2023-02-12T00:09:09.459Z,958.31
2023-02-12T00:09:40.356Z,958.31
2023-02-12T00:10:11.459Z,958.31
2023-02-12T00:10:42.314Z,958.31
2023-02-12T00:11:13.400Z,958.21
2023-02-12T00:11:44.492Z,958.21
2023-02-12T00:12:16.487Z,958.21
2023-02-12T00:12:46.626Z,958.21
2023-02-12T00:13:17.308Z,958.21
2023-02-12T00:13:48.335Z,958.21
2023-02-12T00:14:19.769Z,958.31
2023-02-12T00:14:50.432Z,958.31
2023-02-12T00:15:21.786Z,958.21
2023-02-12T00:15:52.342Z,958.21
2023-02-12T00:16:23.162Z,958.21
2023-02-12T00:16:54.490Z,958.21
2023-02-12T00:17:26.431Z,958.21
2023-02-12T00:17:56.676Z,958.21
2023-02-12T00:18:27.503Z,958.21
2023-02-12T00:18:58.454Z,958.21
2023-02-12T00:19:29.541Z,958.21
2023-02-12T00:20:00.538Z,958.21
2023-02-12T00:20:31.331Z,958.41
2023-02-12T00:21:02.153Z,958.41
2023-02-12T00:21:33.546Z,958.52
2023-02-12T00:22:04.598Z,958.52
2023-02-12T00:22:36.413Z,958.41
2023-02-12T00:23:06.538Z,958.41
2023-02-12T00:23:37.458Z,958.52
2023-02-12T00:24:08.605Z,958.31
2023-02-12T00:24:39.299Z,958.31
2023-02-12T00:25:10.624Z,958.21
2023-02-12T00:25:41.521Z,958.21
2023-02-12T00:26:12.506Z,958.21
2023-02-12T00:26:43.634Z,958.21
2023-02-12T00:27:14.705Z,958.41
2023-02-12T00:27:46.347Z,958.41
2023-02-12T00:28:16.635Z,958.21
2023-02-12T00:28:47.243Z,958.21
2023-02-12T00:29:18.502Z,958.21
2023-02-12T00:29:49.554Z,958.21
2023-02-12T00:30:20.687Z,958.11
2023-02-12T00:30:51.594Z,958.11
2023-02-12T00:31:22.668Z,958.21
2023-02-12T00:31:53.505Z,958.21
2023-02-12T00:32:24.355Z,958.21
2023-02-12T00:32:56.290Z,958.21
2023-02-12T00:33:26.646Z,958.21
2023-02-12T00:33:57.512Z,958.21
2023-02-12T00:34:28.494Z,958.11
2023-02-12T00:34:59.509Z,958.11
2023-02-12T00:35:30.435Z,958.21
2023-02-12T00:36:01.419Z,958.21
2023-02-12T00:36:32.476Z,958.21
2023-02-12T00:37:03.281Z,958.21
2023-02-12T00:37:34.214Z,958.21
2023-02-12T00:38:06.543Z,958.21
2023-02-12T00:38:36.529Z,958.21
2023-02-12T00:39:07.382Z,958.21
2023-02-12T00:39:38.273Z,958.41
2023-02-12T00:40:09.459Z,958.21
2023-02-12T00:40:40.356Z,958.21
2023-02-12T00:41:11.494Z,958.21
2023-02-12T00:41:42.412Z,958.21
2023-02-12T00:42:13.376Z,958.31
2023-02-12T00:42:44.475Z,958.31
2023-02-12T00:43:16.495Z,958.31
2023-02-12T00:43:46.540Z,958.31
2023-02-12T00:44:17.316Z,958.21
2023-02-12T00:44:48.406Z,958.21
2023-02-12T00:45:19.673Z,958.31
2023-02-12T00:45:50.614Z,958.31
2023-02-12T00:46:21.458Z,958.11
2023-02-12T00:46:52.362Z,958.11
2023-02-12T00:47:23.515Z,958.11
2023-02-12T00:47:54.461Z,958.11
2023-02-12T00:48:26.602Z,958.31
2023-02-12T00:48:56.522Z,958.31
2023-02-12T00:49:27.486Z,958.31
2023-02-12T00:49:58.457Z,958.31
2023-02-12T00:50:31.729Z,958.11
2023-02-12T00:51:00.424Z,958.11
2023-02-12T00:51:31.423Z,958.41
2023-02-12T00:52:02.326Z,958.41
2023-02-12T00:52:33.481Z,958.52
2023-02-12T00:53:04.366Z,958.52
2023-02-12T00:53:36.270Z,958.52
2023-02-12T00:54:06.568Z,958.52
2023-02-12T00:54:37.551Z,958.41
2023-02-12T00:55:08.644Z,958.41
2023-02-12T00:55:39.334Z,958.41
2023-02-12T00:56:10.477Z,958.21
2023-02-12T00:56:41.716Z,958.21
2023-02-12T00:57:12.521Z,958.31
2023-02-12T00:57:43.472Z,958.31
2023-02-12T00:58:15.710Z,958.31
2023-02-12T00:58:46.724Z,958.31
2023-02-12T00:59:16.520Z,958.41
2023-02-12T00:59:47.362Z,958.41
2023-02-12T01:00:21.286Z,958.52
2023-02-12T01:00:53.005Z,958.52
2023-02-12T01:01:20.434Z,958.41
2023-02-12T01:01:51.618Z,958.41
2023-02-12T01:02:22.308Z,958.11
2023-02-12T01:02:53.408Z,958.11
2023-02-12T01:03:24.477Z,958.31
2023-02-12T01:03:56.575Z,958.31
2023-02-12T01:04:26.619Z,958.21
2023-02-12T01:04:57.564Z,958.21
2023-02-12T01:05:28.522Z,958.41
2023-02-12T01:05:59.544Z,958.41
2023-02-12T01:06:30.593Z,958.31
2023-02-12T01:07:01.426Z,958.31
2023-02-12T01:07:32.325Z,958.41
2023-02-12T01:08:03.612Z,958.41
2023-02-12T01:08:34.611Z,958.11
2023-02-12T01:09:06.608Z,958.11
2023-02-12T01:09:36.427Z,958.21
2023-02-12T01:10:07.372Z,958.21
2023-02-12T01:10:38.539Z,958.31
2023-02-12T01:11:09.553Z,958.11
2023-02-12T01:11:40.406Z,958.11
2023-02-12T01:12:11.561Z,958.21
2023-02-12T01:12:42.533Z,958.21
2023-02-12T01:13:13.462Z,958.21
2023-02-12T01:13:44.644Z,958.21
2023-02-12T01:14:16.520Z,958.21
2023-02-12T01:14:46.567Z,958.21
2023-02-12T01:15:20.206Z,958.31
2023-02-12T01:15:48.668Z,958.31
2023-02-12T01:16:19.681Z,958.21
2023-02-12T01:16:50.542Z,958.21
2023-02-12T01:17:21.482Z,958.21
2023-02-12T01:17:52.255Z,958.21
2023-02-12T01:18:23.615Z,958.21
2023-02-12T01:18:56.072Z,958.21
2023-02-12T01:19:26.633Z,958.21
2023-02-12T01:19:56.657Z,958.21
2023-02-12T01:20:27.712Z,958.01
2023-02-12T01:20:58.636Z,958.01
2023-02-12T01:21:29.545Z,958.31
2023-02-12T01:22:00.574Z,958.31
2023-02-12T01:22:31.464Z,958.31
2023-02-12T01:23:02.360Z,958.31
2023-02-12T01:23:33.545Z,958.21
2023-02-12T01:24:04.610Z,958.21
2023-02-12T01:24:36.491Z,958.01
2023-02-12T01:25:06.567Z,958.01
2023-02-12T01:25:37.486Z,958.11
2023-02-12T01:26:08.527Z,958.31
2023-02-12T01:26:39.513Z,958.31
2023-02-12T01:27:10.576Z,958.11
2023-02-12T01:27:41.594Z,958.11
2023-02-12T01:28:12.577Z,958.11
2023-02-12T01:28:43.409Z,958.11
2023-02-12T01:29:14.372Z,958.31
2023-02-12T01:29:46.404Z,958.31
2023-02-12T01:30:19.479Z,958.01
2023-02-12T01:30:47.382Z,958.01
2023-02-12T01:31:18.692Z,958.21
2023-02-12T01:31:49.700Z,958.21
2023-02-12T01:32:20.584Z,958.21
2023-02-12T01:32:51.343Z,958.21
2023-02-12T01:33:22.467Z,958.01
2023-02-12T01:33:53.643Z,958.01
2023-02-12T01:34:24.533Z,958.21
2023-02-12T01:34:56.621Z,958.21
2023-02-12T01:35:26.668Z,958.01
2023-02-12T01:35:57.635Z,958.01
2023-02-12T01:36:28.496Z,958.11
2023-02-12T01:36:59.522Z,958.11
2023-02-12T01:37:30.408Z,958.31
2023-02-12T01:38:01.447Z,958.31
2023-02-12T01:38:32.293Z,958.21
2023-02-12T01:39:03.749Z,958.21
2023-02-12T01:39:34.592Z,958.11
2023-02-12T01:40:06.368Z,958.11
2023-02-12T01:40:40.365Z,958.01
2023-02-12T01:41:07.984Z,958.01
2023-02-12T01:41:39.012Z,958.31
2023-02-12T01:42:10.072Z,958.21
2023-02-12T01:42:40.997Z,958.21
2023-02-12T01:43:11.789Z,958.21
2023-02-12T01:43:43.016Z,958.21
2023-02-12T01:44:13.988Z,958.31
2023-02-12T01:44:44.823Z,958.31
2023-02-12T01:45:20.002Z,958.31
2023-02-12T01:45:46.823Z,958.31
2023-02-12T01:46:17.905Z,958.31
2023-02-12T01:46:48.917Z,958.31
2023-02-12T01:47:20.034Z,958.31
2023-02-12T01:47:50.837Z,958.31
2023-02-12T01:48:21.995Z,958.31
2023-02-12T01:48:53.537Z,958.31
2023-02-12T01:49:23.778Z,958.31
2023-02-12T01:50:25.334Z,958.31
2023-02-12T01:50:53.439Z,958.31
2023-02-12T01:51:31.112Z,958.31
2023-02-12T01:51:59.517Z,958.31
2023-02-12T01:52:29.942Z,958.21
2023-02-12T01:53:00.954Z,958.21
2023-02-12T01:53:31.657Z,958.41
2023-02-12T01:54:02.567Z,958.41
2023-02-12T01:54:33.622Z,958.11
2023-02-12T01:55:04.913Z,958.11
2023-02-12T01:55:36.583Z,958.21
2023-02-12T01:56:06.868Z,958.21
2023-02-12T01:56:37.870Z,958.41
2023-02-12T01:57:08.621Z,958.52
2023-02-12T01:57:39.777Z,958.52
2023-02-12T01:58:11.359Z,958.21
2023-02-12T01:58:42.248Z,958.21
2023-02-12T01:59:12.561Z,958.11
2023-02-12T01:59:43.716Z,958.11
2023-02-12T02:00:21.196Z,958.11
2023-02-12T02:00:46.763Z,958.11
2023-02-12T02:01:16.647Z,958.21
2023-02-12T02:01:47.726Z,958.21
2023-02-12T02:02:18.646Z,958.21
2023-02-12T02:02:49.731Z,958.21
2023-02-12T02:03:20.700Z,958.21
2023-02-12T02:03:51.716Z,958.21
2023-02-12T02:04:23.287Z,958.31
2023-02-12T02:04:53.819Z,958.31
2023-02-12T02:05:24.892Z,958.11
2023-02-12T02:05:56.880Z,958.11
2023-02-12T02:06:27.020Z,958.41
2023-02-12T02:06:57.916Z,958.41
2023-02-12T02:07:28.689Z,958.41
2023-02-12T02:07:59.575Z,958.41
2023-02-12T02:08:30.849Z,958.11
2023-02-12T02:09:01.853Z,958.11
2023-02-12T02:09:32.898Z,957.94
2023-02-12T02:10:03.683Z,957.94
2023-02-12T02:10:34.754Z,958.31
2023-02-12T02:11:06.795Z,958.31
2023-02-12T02:11:36.851Z,958.11
2023-02-12T02:12:13.575Z,958.11
2023-02-12T02:12:38.792Z,958.01
2023-02-12T02:13:09.771Z,958.11
2023-02-12T02:13:40.983Z,958.11
2023-02-12T02:14:11.870Z,958.21
2023-02-12T02:14:42.676Z,958.21
2023-02-12T02:15:16.907Z,958.11
2023-02-12T02:15:45.099Z,958.11
2023-02-12T02:16:16.806Z,958.11
2023-02-12T02:16:46.435Z,958.11
2023-02-12T02:17:18.019Z,958.11
2023-02-12T02:17:48.668Z,958.11
2023-02-12T02:18:20.366Z,958.11
2023-02-12T02:18:50.970Z,958.11
2023-02-12T02:19:21.582Z,958.21
2023-02-12T02:19:52.547Z,958.21
2023-02-12T02:20:23.432Z,958.11
2023-02-12T02:20:54.696Z,958.11
2023-02-12T02:21:26.758Z,958.11
2023-02-12T02:21:56.846Z,958.11
2023-02-12T02:22:27.586Z,958.01
2023-02-12T02:22:58.709Z,958.01
2023-02-12T02:23:29.649Z,957.84
2023-02-12T02:24:00.737Z,957.84
2023-02-12T02:24:31.924Z,957.94
2023-02-12T02:25:02.708Z,957.94
2023-02-12T02:25:33.917Z,957.94
2023-02-12T02:26:05.135Z,957.94
2023-02-12T02:26:37.125Z,957.74
2023-02-12T02:27:06.704Z,957.74
2023-02-12T02:27:37.651Z,957.94
2023-02-12T02:28:08.745Z,958.01
2023-02-12T02:28:39.482Z,958.01
2023-02-12T02:29:10.568Z,958.01
2023-02-12T02:29:41.834Z,958.01
2023-02-12T02:30:15.771Z,958.01
2023-02-12T02:30:43.935Z,958.01
2023-02-12T02:31:14.989Z,958.01
2023-02-12T02:31:46.957Z,958.01
2023-02-12T02:32:16.922Z,958.01
2023-02-12T02:32:47.943Z,958.01
2023-02-12T02:33:19.015Z,957.94
2023-02-12T02:33:49.966Z,957.94
2023-02-12T02:34:20.706Z,957.94
2023-02-12T02:34:51.747Z,957.94
2023-02-12T02:35:23.346Z,957.94
2023-02-12T02:35:54.126Z,957.94
2023-02-12T02:36:26.078Z,957.74
2023-02-12T02:37:00.863Z,957.74
2023-02-12T02:37:27.152Z,958.01
2023-02-12T02:37:58.007Z,958.01
2023-02-12T02:38:28.842Z,958.11
2023-02-12T02:38:59.894Z,958.11
2023-02-12T02:39:30.958Z,957.74
2023-02-12T02:40:01.980Z,957.74
2023-02-12T02:40:32.734Z,957.84
2023-02-12T02:41:03.416Z,957.84
2023-02-12T02:41:34.591Z,957.84
2023-02-12T02:42:06.539Z,957.84
2023-02-12T02:42:36.566Z,957.94
2023-02-12T02:43:07.435Z,957.94
2023-02-12T02:43:38.641Z,957.94
2023-02-12T02:44:09.559Z,957.94
2023-02-12T02:44:40.451Z,957.94
2023-02-12T02:45:14.395Z,958.01
2023-02-12T02:45:42.407Z,958.01
2023-02-12T02:46:13.814Z,957.84
2023-02-12T02:46:44.628Z,957.84
2023-02-12T02:47:17.068Z,957.84
2023-02-12T02:47:46.940Z,957.84
2023-02-12T02:48:18.164Z,957.84
2023-02-12T02:48:48.795Z,957.84
2023-02-12T02:49:19.815Z,957.94
2023-02-12T02:49:50.717Z,957.94
2023-02-12T02:50:21.571Z,958.01
2023-02-12T02:50:52.833Z,958.01
2023-02-12T02:51:23.711Z,957.84
2023-02-12T02:51:54.755Z,957.84
2023-02-12T02:52:26.691Z,957.94
2023-02-12T02:52:56.745Z,957.94
2023-02-12T02:53:27.545Z,957.84
2023-02-12T02:53:58.837Z,957.84
2023-02-12T02:54:29.570Z,957.64
2023-02-12T02:55:00.560Z,957.64
2023-02-12T02:55:31.684Z,957.84
2023-02-12T02:56:02.538Z,957.84
2023-02-12T02:56:33.689Z,958.01
2023-02-12T02:57:04.578Z,958.01
2023-02-12T02:57:36.432Z,957.94
2023-02-12T02:58:06.571Z,957.94
2023-02-12T02:58:37.705Z,957.84
2023-02-12T02:59:08.689Z,957.84
2023-02-12T02:59:39.822Z,957.84
2023-02-12T03:00:13.574Z,957.84
2023-02-12T03:00:41.676Z,957.84
2023-02-12T03:01:12.854Z,957.74
2023-02-12T03:01:43.646Z,957.74
2023-02-12T03:02:14.676Z,957.94
2023-02-12T03:02:46.689Z,957.94
2023-02-12T03:03:16.882Z,957.84
2023-02-12T03:03:47.618Z,957.84
2023-02-12T03:04:18.769Z,957.94
2023-02-12T03:04:49.677Z,957.94
2023-02-12T03:05:20.689Z,957.84
2023-02-12T03:05:51.517Z,957.84
2023-02-12T03:06:22.819Z,957.94
2023-02-12T03:06:53.747Z,957.94
2023-02-12T03:07:24.603Z,957.74
2023-02-12T03:07:56.625Z,957.74
2023-02-12T03:08:26.605Z,957.84
2023-02-12T03:08:57.714Z,957.84
2023-02-12T03:09:28.644Z,957.94
2023-02-12T03:09:59.394Z,957.94
2023-02-12T03:10:30.425Z,957.94
2023-02-12T03:11:01.583Z,957.94
2023-02-12T03:11:32.508Z,957.84
2023-02-12T03:12:03.427Z,957.84
2023-02-12T03:12:34.635Z,957.94
2023-02-12T03:13:06.492Z,957.94
2023-02-12T03:13:36.656Z,957.84
2023-02-12T03:14:07.805Z,957.84
2023-02-12T03:14:38.518Z,957.84
2023-02-12T03:15:12.592Z,957.94
2023-02-12T03:15:40.577Z,957.94
2023-02-12T03:16:11.752Z,957.84
2023-02-12T03:16:42.643Z,957.84
2023-02-12T03:17:13.509Z,957.74
2023-02-12T03:17:44.674Z,957.74
2023-02-12T03:18:16.740Z,957.84
2023-02-12T03:18:46.771Z,957.84
2023-02-12T03:19:17.456Z,958.01
2023-02-12T03:19:48.709Z,958.01
2023-02-12T03:20:19.759Z,957.74
2023-02-12T03:20:50.704Z,957.74
2023-02-12T03:21:21.589Z,957.94
2023-02-12T03:21:52.756Z,957.94
2023-02-12T03:22:23.757Z,957.74
2023-02-12T03:22:54.839Z,957.74
2023-02-12T03:23:26.994Z,958.11
2023-02-12T03:23:56.589Z,958.11
2023-02-12T03:24:27.607Z,957.94
2023-02-12T03:24:58.648Z,957.94
2023-02-12T03:25:29.780Z,958.01
2023-02-12T03:26:00.644Z,958.01
2023-02-12T03:26:31.648Z,957.94
2023-02-12T03:27:02.588Z,957.94
2023-02-12T03:27:33.878Z,958.01
2023-02-12T03:28:04.846Z,958.01
2023-02-12T03:28:36.557Z,957.94
2023-02-12T03:29:06.583Z,957.94
2023-02-12T03:29:37.745Z,958.01
2023-02-12T03:30:11.607Z,957.84
2023-02-12T03:30:39.893Z,957.84
2023-02-12T03:31:10.878Z,957.84
2023-02-12T03:31:41.782Z,957.84
2023-02-12T03:32:12.747Z,957.84
2023-02-12T03:32:43.621Z,957.84
2023-02-12T03:33:14.452Z,957.84
2023-02-12T03:33:46.714Z,957.84
2023-02-12T03:34:16.439Z,957.64
2023-02-12T03:34:47.491Z,957.64
2023-02-12T03:35:18.606Z,957.94
2023-02-12T03:35:49.475Z,957.94
2023-02-12T03:36:20.744Z,957.84
2023-02-12T03:36:51.649Z,957.84
2023-02-12T03:37:22.677Z,957.64
2023-02-12T03:37:53.466Z,957.64
2023-02-12T03:38:24.740Z,957.84
2023-02-12T03:38:56.599Z,957.84
2023-02-12T03:39:26.768Z,957.94
2023-02-12T03:39:57.652Z,957.94
2023-02-12T03:40:28.507Z,957.84
2023-02-12T03:40:59.527Z,957.84
2023-02-12T03:41:30.697Z,957.84
2023-02-12T03:42:01.747Z,957.84
2023-02-12T03:42:32.542Z,957.84
2023-02-12T03:43:03.688Z,957.84
2023-02-12T03:43:34.756Z,957.84
2023-02-12T03:44:06.499Z,957.84
2023-02-12T03:44:36.792Z,957.74
2023-02-12T03:45:10.396Z,957.74
2023-02-12T03:45:38.838Z,958.01
2023-02-12T03:46:09.801Z,957.84
2023-02-12T03:46:40.672Z,957.84
2023-02-12T03:47:11.742Z,957.94
2023-02-12T03:47:42.554Z,957.94
2023-02-12T03:48:13.481Z,958.01
2023-02-12T03:48:44.524Z,958.01
2023-02-12T03:49:16.793Z,957.74
2023-02-12T03:49:46.834Z,957.74
2023-02-12T03:50:17.474Z,957.74
2023-02-12T03:50:48.752Z,957.74
2023-02-12T03:51:19.771Z,957.74
2023-02-12T03:51:50.656Z,957.74
2023-02-12T03:52:21.585Z,957.84
2023-02-12T03:52:52.391Z,957.84
2023-02-12T03:53:23.729Z,957.84
2023-02-12T03:53:54.515Z,957.84
2023-02-12T03:54:27.215Z,957.94
2023-02-12T03:54:56.706Z,957.94
2023-02-12T03:55:27.849Z,957.84
2023-02-12T03:55:58.732Z,957.84
2023-02-12T03:56:29.667Z,957.94
2023-02-12T03:57:00.503Z,957.94
2023-02-12T03:57:31.795Z,957.94
2023-02-12T03:58:02.567Z,957.94
2023-02-12T03:58:33.798Z,957.74
2023-02-12T03:59:04.534Z,957.74
2023-02-12T03:59:36.667Z,957.94
2023-02-12T04:00:09.469Z,957.94
2023-02-12T04:00:37.816Z,957.94
2023-02-12T04:01:08.967Z,958.01
2023-02-12T04:01:39.739Z,958.01
2023-02-12T04:02:10.766Z,957.94
2023-02-12T04:02:41.570Z,957.94
2023-02-12T04:03:12.602Z,958.01
2023-02-12T04:03:43.483Z,958.01
2023-02-12T04:04:14.577Z,958.01
2023-02-12T04:04:46.578Z,958.01
2023-02-12T04:05:16.602Z,958.01
2023-02-12T04:05:47.661Z,958.01
2023-02-12T04:06:18.511Z,958.01
2023-02-12T04:06:49.732Z,958.01
2023-02-12T04:07:20.748Z,958.01
2023-02-12T04:07:51.921Z,958.01
2023-02-12T04:08:22.660Z,958.11
2023-02-12T04:08:53.710Z,958.11
2023-02-12T04:09:24.737Z,958.21
2023-02-12T04:09:56.662Z,958.21
2023-02-12T04:10:26.766Z,958.11
2023-02-12T04:10:57.605Z,958.11
2023-02-12T04:11:28.802Z,958.21
2023-02-12T04:11:59.850Z,958.21
2023-02-12T04:12:30.507Z,958.11
2023-02-12T04:13:01.598Z,958.11
2023-02-12T04:13:32.657Z,957.94
2023-02-12T04:14:03.676Z,957.94
2023-02-12T04:14:34.734Z,958.21
2023-02-12T04:15:09.496Z,958.21
2023-02-12T04:15:36.785Z,958.21
2023-02-12T04:16:07.960Z,958.21
2023-02-12T04:16:38.741Z,958.21
2023-02-12T04:17:09.861Z,958.11
2023-02-12T04:17:40.842Z,958.11
2023-02-12T04:18:11.651Z,958.31
2023-02-12T04:18:42.524Z,958.31
2023-02-12T04:19:13.771Z,958.01
2023-02-12T04:19:44.851Z,958.01
2023-02-12T04:20:16.579Z,958.11
2023-02-12T04:20:46.780Z,958.11
2023-02-12T04:21:17.640Z,958.21
2023-02-12T04:21:48.828Z,958.21
2023-02-12T04:22:19.788Z,958.11
2023-02-12T04:22:50.533Z,958.11
2023-02-12T04:23:21.743Z,958.11
2023-02-12T04:23:52.784Z,958.11
2023-02-12T04:24:23.878Z,958.31
2023-02-12T04:24:54.789Z,958.31
2023-02-12T04:25:26.723Z,958.31
2023-02-12T04:25:56.994Z,958.31
2023-02-12T04:26:27.672Z,958.11
2023-02-12T04:26:58.695Z,958.11
2023-02-12T04:27:29.775Z,958.11
2023-02-12T04:28:00.704Z,958.11
2023-02-12T04:28:31.668Z,958.11
2023-02-12T04:29:02.691Z,958.11
2023-02-12T04:29:33.770Z,958.21
2023-02-12T04:30:07.658Z,958.21
2023-02-12T04:30:36.702Z,958.31
2023-02-12T04:31:06.867Z,958.31
2023-02-12T04:31:37.924Z,958.21
2023-02-12T04:32:08.949Z,958.21
2023-02-12T04:32:39.850Z,958.21
2023-02-12T04:33:10.860Z,958.11
2023-02-12T04:33:41.701Z,958.11
2023-02-12T04:34:12.464Z,958.21
2023-02-12T04:34:43.725Z,958.21
2023-02-12T04:35:14.701Z,958.11
2023-02-12T04:35:46.648Z,958.11
2023-02-12T04:36:16.695Z,958.11
2023-02-12T04:36:47.704Z,958.11
2023-02-12T04:37:18.691Z,958.11
2023-02-12T04:37:49.755Z,958.11
2023-02-12T04:38:20.810Z,958.11
2023-02-12T04:41:26.779Z,958.21
2023-02-12T04:41:57.789Z,958.21
2023-02-12T04:42:28.829Z,958.41
2023-02-12T04:42:59.894Z,958.41
2023-02-12T04:43:30.699Z,958.11
2023-02-12T04:44:01.608Z,958.11
2023-02-12T04:44:32.621Z,958.21
2023-02-12T04:45:06.591Z,958.21
2023-02-12T04:45:34.619Z,958.31
2023-02-12T04:46:06.750Z,958.31
2023-02-12T04:46:36.798Z,958.01
2023-02-12T04:47:07.819Z,958.01
2023-02-12T04:47:38.809Z,958.11
2023-02-12T04:48:09.690Z,958.31
2023-02-12T04:48:40.912Z,958.31
2023-02-12T04:49:11.613Z,958.31
2023-02-12T04:49:42.838Z,958.31
2023-02-12T04:50:14.003Z,958.01
2023-02-12T04:50:44.663Z,958.01
2023-02-12T04:51:16.724Z,958.01
2023-02-12T04:51:46.735Z,958.01
2023-02-12T04:52:17.827Z,958.21
2023-02-12T04:52:48.886Z,958.21
2023-02-12T04:53:19.657Z,958.31
2023-02-12T04:53:50.540Z,958.31
2023-02-12T04:54:21.711Z,958.21
2023-02-12T04:54:52.761Z,958.21
2023-02-12T04:55:23.593Z,958.21
2023-02-12T04:55:55.018Z,958.21
2023-02-12T04:56:26.880Z,958.01
2023-02-12T04:56:56.840Z,958.01
2023-02-12T04:57:27.651Z,958.01
2023-02-12T04:57:58.602Z,958.01
2023-02-12T04:58:29.783Z,958.11
2023-02-12T04:59:00.660Z,958.11
2023-02-12T04:59:31.893Z,958.11
2023-02-12T05:00:05.478Z,958.11
2023-02-12T05:00:33.874Z,958.21
2023-02-12T05:01:04.737Z,958.21
2023-02-12T05:01:36.773Z,958.41
2023-02-12T05:02:06.833Z,958.41
2023-02-12T05:02:37.779Z,958.21
2023-02-12T05:03:08.827Z,958.01
2023-02-12T05:03:39.735Z,958.01
2023-02-12T05:04:10.927Z,958.31
2023-02-12T05:04:41.763Z,958.31
2023-02-12T05:05:12.771Z,958.31
2023-02-12T05:05:44.000Z,958.31
2023-02-12T05:06:14.915Z,958.01
2023-02-12T05:06:46.681Z,958.01
2023-02-12T05:07:16.672Z,958.31
2023-02-12T05:07:47.759Z,958.31
2023-02-12T05:08:18.801Z,958.21
2023-02-12T05:08:49.866Z,958.21
2023-02-12T05:09:20.692Z,958.31
2023-02-12T05:09:51.745Z,958.31
2023-02-12T05:10:22.685Z,958.11
2023-02-12T05:10:53.691Z,958.11
2023-02-12T05:11:24.818Z,958.01
2023-02-12T05:11:56.710Z,958.01
2023-02-12T05:12:27.123Z,958.11
2023-02-12T05:12:57.678Z,958.11
2023-02-12T05:13:28.831Z,958.01
2023-02-12T05:13:59.560Z,958.01
2023-02-12T05:14:30.677Z,958.31
2023-02-12T05:15:04.701Z,958.31
2023-02-12T05:15:32.864Z,958.01
2023-02-12T05:16:03.926Z,958.01
2023-02-12T05:16:34.808Z,957.94
2023-02-12T05:17:06.593Z,957.94
2023-02-12T05:17:36.794Z,958.01
2023-02-12T05:18:07.860Z,958.01
2023-02-12T05:18:38.644Z,958.01
2023-02-12T05:19:09.911Z,958.11
2023-02-12T05:19:40.937Z,958.11
2023-02-12T05:20:11.780Z,958.11
2023-02-12T05:20:42.798Z,958.11
2023-02-12T05:21:13.872Z,957.94
2023-02-12T05:21:44.870Z,957.94
2023-02-12T05:22:16.653Z,958.01
2023-02-12T05:22:47.010Z,958.01
2023-02-12T05:23:17.693Z,958.01
2023-02-12T05:23:48.924Z,958.01
2023-02-12T05:24:19.847Z,958.01
2023-02-12T05:24:50.851Z,958.01
2023-02-12T05:25:22.177Z,958.31
2023-02-12T05:25:52.858Z,958.31
2023-02-12T05:26:23.830Z,958.21
2023-02-12T05:26:54.782Z,958.21
2023-02-12T05:27:26.861Z,958.01
2023-02-12T05:27:57.012Z,958.01
2023-02-12T05:28:27.897Z,958.01
2023-02-12T05:28:58.951Z,958.01
2023-02-12T05:29:30.032Z,958.21
2023-02-12T05:30:03.577Z,958.21
2023-02-12T05:30:31.690Z,958.11
2023-02-12T05:31:03.046Z,958.11
2023-02-12T05:31:34.137Z,958.11
2023-02-12T05:32:05.104Z,958.11
2023-02-12T05:32:37.058Z,958.21
2023-02-12T05:33:06.863Z,958.21
2023-02-12T05:33:37.921Z,958.01
2023-02-12T05:34:08.994Z,958.11
2023-02-12T05:34:39.894Z,958.11
2023-02-12T05:35:10.662Z,958.01
2023-02-12T05:35:41.845Z,958.01
2023-02-12T05:36:12.767Z,958.11
2023-02-12T05:36:43.936Z,958.11
2023-02-12T05:37:14.777Z,958.21
2023-02-12T05:37:46.634Z,958.21
2023-02-12T05:38:16.749Z,958.31
2023-02-12T05:38:47.757Z,958.31
2023-02-12T05:39:18.898Z,958.21
2023-02-12T05:39:49.997Z,958.21
2023-02-12T05:40:20.853Z,958.21
2023-02-12T05:40:51.666Z,958.21
2023-02-12T05:41:22.988Z,958.31
2023-02-12T05:41:53.868Z,958.31
2023-02-12T05:42:24.826Z,958.21
2023-02-12T05:42:56.809Z,958.21
2023-02-12T05:43:26.777Z,958.31
2023-02-12T05:43:57.815Z,958.31
2023-02-12T05:44:28.652Z,958.21
2023-02-12T05:44:59.944Z,958.21
2023-02-12T05:45:33.669Z,958.21
2023-02-12T05:46:01.862Z,958.21
2023-02-12T05:46:33.008Z,958.31
2023-02-12T05:47:03.920Z,958.31
2023-02-12T05:47:34.823Z,958.11
2023-02-12T05:48:06.668Z,958.11
2023-02-12T05:48:36.949Z,958.11
2023-02-12T05:49:07.949Z,958.11
2023-02-12T05:49:38.846Z,958.11
2023-02-12T05:50:09.923Z,958.21
2023-02-12T05:50:41.059Z,958.21
2023-02-12T05:51:11.942Z,958.31
2023-02-12T05:51:42.822Z,958.31
2023-02-12T05:52:14.062Z,958.01
2023-02-12T05:52:45.093Z,958.01
2023-02-12T05:53:16.804Z,958.21
2023-02-12T05:53:46.759Z,958.21
2023-02-12T05:54:17.920Z,958.21
2023-02-12T05:54:48.890Z,958.21
2023-02-12T05:55:19.941Z,958.11
2023-02-12T05:55:50.843Z,958.11
2023-02-12T05:56:21.822Z,958.01
2023-02-12T05:56:53.133Z,958.01
2023-02-12T05:57:23.805Z,958.01
2023-02-12T05:57:55.017Z,958.01
2023-02-12T05:58:26.888Z,958.11
2023-02-12T05:58:57.019Z,958.11
2023-02-12T05:59:27.849Z,958.11
2023-02-12T05:59:59.082Z,958.11
2023-02-12T06:00:32.464Z,957.94
2023-02-12T06:01:00.938Z,957.94
2023-02-12T06:01:31.752Z,958.01
2023-02-12T06:02:02.976Z,958.01
2023-02-12T06:02:34.010Z,957.94
2023-02-12T06:03:04.875Z,957.94
2023-02-12T06:03:36.874Z,957.94
2023-02-12T06:04:06.948Z,957.94
2023-02-12T06:04:37.938Z,957.94
2023-02-12T06:05:08.768Z,958.01
2023-02-12T06:05:39.818Z,958.01
2023-02-12T06:06:11.099Z,957.84
2023-02-12T06:06:41.915Z,957.84
2023-02-12T06:07:12.732Z,957.94
2023-02-12T06:07:43.812Z,957.94
2023-02-12T06:08:14.938Z,957.84
2023-02-12T06:08:46.756Z,957.84
2023-02-12T06:09:16.760Z,957.84
2023-02-12T06:09:47.741Z,957.84
2023-02-12T06:10:18.974Z,958.01
2023-02-12T06:10:49.955Z,958.01
2023-02-12T06:11:20.747Z,957.84
2023-02-12T06:11:51.999Z,957.84
2023-02-12T06:12:22.811Z,957.94
2023-02-12T06:12:53.821Z,957.94
2023-02-12T06:13:24.944Z,957.74
2023-02-12T06:13:56.879Z,957.74
2023-02-12T06:14:26.931Z,957.94
2023-02-12T06:14:57.701Z,957.94
2023-02-12T06:15:31.710Z,957.94
2023-02-12T06:16:00.216Z,957.94
2023-02-12T06:16:30.994Z,957.94
2023-02-12T06:17:01.678Z,957.94
2023-02-12T06:17:32.982Z,957.94
2023-02-12T06:18:03.937Z,957.94
2023-02-12T06:18:34.962Z,957.74
2023-02-12T06:19:06.924Z,957.74
2023-02-12T06:19:36.922Z,958.01
2023-02-12T06:20:07.989Z,958.01
2023-02-12T06:20:39.153Z,957.74
2023-02-12T06:21:10.353Z,957.84
2023-02-12T06:21:40.778Z,957.84
2023-02-12T06:22:12.013Z,957.74
2023-02-12T06:22:42.858Z,957.74
2023-02-12T06:23:13.875Z,957.94
2023-02-12T06:23:44.601Z,957.94
2023-02-12T06:24:18.481Z,957.84
2023-02-12T06:24:46.739Z,957.84
2023-02-12T06:25:18.081Z,957.84
2023-02-12T06:25:48.827Z,957.84
2023-02-12T06:26:19.894Z,957.84
2023-02-12T06:26:50.915Z,957.84
2023-02-12T06:27:21.920Z,957.94
2023-02-12T06:27:52.981Z,957.94
2023-02-12T06:28:23.883Z,957.94
2023-02-12T06:28:54.850Z,957.94
2023-02-12T06:29:26.900Z,957.84
2023-02-12T06:29:57.059Z,957.84